sensor_id;sensor_type;location;lat;lon;timestamp;P1;durP1;ratioP1;P2;durP2;ratioP2
26407;SDS011;14583;43.604;1.364;2024-01-27T00:00:05;50.65;;;34.55;;
26407;SDS011;14583;43.604;1.364;2024-01-27T00:02:31;51.00;;;34.22;;
26407;SDS011;14583;43.604;1.364;2024-01-27T00:04:57;49.30;;;32.97;;
26407;SDS011;14583;43.604;1.364;2024-01-27T00:07:23;49.28;;;33.80;;
26407;SDS011;14583;43.604;1.364;2024-01-27T00:09:50;45.58;;;32.60;;
26407;SDS011;14583;43.604;1.364;2024-01-27T00:12:16;45.30;;;29.67;;
26407;SDS011;14583;43.604;1.364;2024-01-27T00:14:41;46.35;;;30.70;;
26407;SDS011;14583;43.604;1.364;2024-01-27T00:17:08;47.15;;;30.63;;
26407;SDS011;14583;43.604;1.364;2024-01-27T00:19:34;48.92;;;31.60;;
26407;SDS011;14583;43.604;1.364;2024-01-27T00:22:00;48.85;;;33.00;;
26407;SDS011;14583;43.604;1.364;2024-01-27T00:24:25;51.40;;;32.60;;
26407;SDS011;14583;43.604;1.364;2024-01-27T00:26:51;51.05;;;33.80;;
26407;SDS011;14583;43.604;1.364;2024-01-27T00:29:17;55.90;;;33.95;;
26407;SDS011;14583;43.604;1.364;2024-01-27T00:31:42;53.20;;;34.50;;
26407;SDS011;14583;43.604;1.364;2024-01-27T00:34:08;90.10;;;33.50;;
26407;SDS011;14583;43.604;1.364;2024-01-27T00:36:33;73.85;;;35.15;;
26407;SDS011;14583;43.604;1.364;2024-01-27T00:39:02;59.17;;;34.70;;
26407;SDS011;14583;43.604;1.364;2024-01-27T00:41:28;60.45;;;35.60;;
26407;SDS011;14583;43.604;1.364;2024-01-27T00:43:54;57.33;;;35.03;;
26407;SDS011;14583;43.604;1.364;2024-01-27T00:46:19;54.15;;;33.10;;
26407;SDS011;14583;43.604;1.364;2024-01-27T00:48:45;57.35;;;32.53;;
26407;SDS011;14583;43.604;1.364;2024-01-27T00:51:11;77.57;;;34.78;;
26407;SDS011;14583;43.604;1.364;2024-01-27T00:53:37;52.75;;;31.38;;
26407;SDS011;14583;43.604;1.364;2024-01-27T00:56:04;43.50;;;28.10;;
26407;SDS011;14583;43.604;1.364;2024-01-27T00:58:29;47.97;;;29.30;;
26407;SDS011;14583;43.604;1.364;2024-01-27T01:00:56;43.42;;;27.02;;
26407;SDS011;14583;43.604;1.364;2024-01-27T01:03:22;46.15;;;27.13;;
26407;SDS011;14583;43.604;1.364;2024-01-27T01:05:47;46.38;;;28.42;;
26407;SDS011;14583;43.604;1.364;2024-01-27T01:08:13;56.05;;;27.40;;
26407;SDS011;14583;43.604;1.364;2024-01-27T01:10:39;74.60;;;29.88;;
26407;SDS011;14583;43.604;1.364;2024-01-27T01:13:04;52.35;;;28.15;;
26407;SDS011;14583;43.604;1.364;2024-01-27T01:15:31;50.45;;;28.52;;
26407;SDS011;14583;43.604;1.364;2024-01-27T01:17:56;62.28;;;28.65;;
26407;SDS011;14583;43.604;1.364;2024-01-27T01:20:22;46.83;;;27.38;;
26407;SDS011;14583;43.604;1.364;2024-01-27T01:22:51;48.78;;;27.27;;
26407;SDS011;14583;43.604;1.364;2024-01-27T01:25:17;87.30;;;28.27;;
26407;SDS011;14583;43.604;1.364;2024-01-27T01:27:43;45.42;;;27.70;;
26407;SDS011;14583;43.604;1.364;2024-01-27T01:30:14;47.60;;;27.08;;
26407;SDS011;14583;43.604;1.364;2024-01-27T01:32:40;39.72;;;25.17;;
26407;SDS011;14583;43.604;1.364;2024-01-27T01:35:06;37.25;;;23.67;;
26407;SDS011;14583;43.604;1.364;2024-01-27T01:37:32;37.80;;;23.30;;
26407;SDS011;14583;43.604;1.364;2024-01-27T01:39:57;38.83;;;23.80;;
26407;SDS011;14583;43.604;1.364;2024-01-27T01:42:23;38.33;;;22.75;;
26407;SDS011;14583;43.604;1.364;2024-01-27T01:44:50;41.75;;;25.23;;
26407;SDS011;14583;43.604;1.364;2024-01-27T01:47:19;40.67;;;24.27;;
26407;SDS011;14583;43.604;1.364;2024-01-27T01:49:47;43.20;;;23.98;;
26407;SDS011;14583;43.604;1.364;2024-01-27T01:52:13;40.40;;;23.25;;
26407;SDS011;14583;43.604;1.364;2024-01-27T01:54:45;40.55;;;23.13;;
26407;SDS011;14583;43.604;1.364;2024-01-27T01:57:15;36.33;;;22.80;;
26407;SDS011;14583;43.604;1.364;2024-01-27T01:59:41;40.33;;;23.77;;
26407;SDS011;14583;43.604;1.364;2024-01-27T02:02:08;37.05;;;23.80;;
26407;SDS011;14583;43.604;1.364;2024-01-27T02:04:46;37.30;;;22.85;;
26407;SDS011;14583;43.604;1.364;2024-01-27T02:07:12;33.45;;;21.83;;
26407;SDS011;14583;43.604;1.364;2024-01-27T02:09:37;31.20;;;20.48;;
26407;SDS011;14583;43.604;1.364;2024-01-27T02:12:03;31.27;;;20.85;;
26407;SDS011;14583;43.604;1.364;2024-01-27T02:14:30;37.97;;;22.38;;
26407;SDS011;14583;43.604;1.364;2024-01-27T02:16:56;35.45;;;22.65;;
26407;SDS011;14583;43.604;1.364;2024-01-27T02:19:21;34.85;;;20.88;;
26407;SDS011;14583;43.604;1.364;2024-01-27T02:21:48;35.55;;;20.52;;
26407;SDS011;14583;43.604;1.364;2024-01-27T02:24:13;29.05;;;19.30;;
26407;SDS011;14583;43.604;1.364;2024-01-27T02:26:39;29.05;;;19.42;;
26407;SDS011;14583;43.604;1.364;2024-01-27T02:29:05;29.88;;;18.98;;
26407;SDS011;14583;43.604;1.364;2024-01-27T02:31:30;32.15;;;20.52;;
26407;SDS011;14583;43.604;1.364;2024-01-27T02:33:56;31.98;;;20.00;;
26407;SDS011;14583;43.604;1.364;2024-01-27T02:36:21;31.20;;;20.25;;
26407;SDS011;14583;43.604;1.364;2024-01-27T02:38:47;40.10;;;22.33;;
26407;SDS011;14583;43.604;1.364;2024-01-27T02:41:13;37.13;;;20.05;;
26407;SDS011;14583;43.604;1.364;2024-01-27T02:43:39;45.08;;;19.33;;
26407;SDS011;14583;43.604;1.364;2024-01-27T02:46:09;103.72;;;21.50;;
26407;SDS011;14583;43.604;1.364;2024-01-27T02:48:36;38.28;;;20.60;;
26407;SDS011;14583;43.604;1.364;2024-01-27T02:51:04;30.42;;;18.95;;
26407;SDS011;14583;43.604;1.364;2024-01-27T02:53:30;130.80;;;20.98;;
